Patuxent River, MD

9:17 AM EST on March 06, 2015 (GMT -0500)
APRSWXNET Lexington Park MD US | Change Station
CLOSE
Current Station
Personal Weather Station
Location: Lexington Park, MD
Elevation: 78 ft
Nearby Weather Stations

Elev 78 ft 38.25 °N, 76.45 °W | Updated 52 minutes ago

Partly Cloudy
Partly Cloudy
19 °F
Feels Like 19 °F
N
2
Wind Variable Wind from NE
Gusts 0.0 mph

Today
High -- | Low -- °F
--% Chance of Precip.
Yesterday
High -- | Low -- °F
Precip. -- in
6:30 AM 6:03 PM
Full, 99% visible
Pressure 30.59 in
Visibility 10.0 miles
Clouds Few 2800 ft
Windchill 19 °F
Dew Point 14 °F
Humidity 82%
Rainfall in
Snow Depth Not available.
UV 2 out of 12
Pollen 2.20 out of 12
Air Quality Not available.
Flu Activity Not available.
METAR KNHK 061352Z 35015KT 10SM FEW028 M07/M14 A3059 RMK AO2 SLP357 T10721144

More Conditions Fewer Conditions

Pressure 30.59 in
Visibility 10.0 miles
Clouds Few 2800 ft
Windchill 19 °F
Dew Point 14 °F
Humidity 82%
Rainfall in
Snow Depth Not available.
UV 2 out of 12
Pollen 2.20 out of 12
Air Quality Not available.
Flu Activity Not available.
METAR KNHK 061352Z 35015KT 10SM FEW028 M07/M14 A3059 RMK AO2 SLP357 T10721144

More Conditions Fewer Conditions

10-Day Weather Forecast

Almanac

Astronomy

Mar. 06, 2015 Rise Set
Actual Time
Civil Twilight
Nautical Twilight
Astronomical Twilight
Moon
Length of Visible Light
Length of Day
Tomorrow will be .
, % of the Moon is Illuminated

Today's Extremes

State Highs State Lows

Community

WunderPhotos

Upload Photos

1,803,275 photos uploaded!

WunderBlogs® & News

Nearby

Air Quality

  Air Quality AQ Index Pollutant
Not available.

Snow Depth

Station Depth Elevation

Earthquake Activity

City Distance Mag. Time & Date
Minimum magnitude displayed is 2.5.

Coastal Water Temperatures

Place Temperature

Nearby Weather Stations